Agen Poker Terpercaya - Poker Online, Situs Judi Poker QaqaPoker

Jackpot

Texas Poker Multi Jackpot System

Kini Telah hadir Jackpot SUPER ROYAL FLUSH

Kini Telah hadir Jackpot 2000 (khusus table VIP keatas).

Ikutilah global jackpot yang tersedia di system kami, dengan system jackpot terbaru dan pertama di indonesia, anda dapat membeli jackpot dengan harga 100 rupiah saja dan menangkan hadiahnya hingga puluhan juta rupiah.

Jackpot bukanlah suatu keharusan untuk dibeli, namun kami memberikan suatu fitur tambahan untuk member tercinta dari www.uanglancar.com.

Terdapat tiga pilihan harga jackpot yang bisa anda beli yaitu :100,500,1000 dan 2000(khusus table VIP Keatas) rupiah.

Hadiah dari Multi jackpot system www.uanglancar.com

  1. full house x 10 harga jackpot yang anda beli.
      (contoh:anda membeli 1000 maka:1000 X10 = 10.000)
  2. four of kind x 250 harga jackpot yang anda beli
      (contoh:anda membeli 1000 maka:1000 X250 = 250.000)
  3. Straight flush x 1200
      (contoh:anda membeli 1000 maka:1000 X1200 = 1.200.000)
  4. Royal flush x 10000 harga jackpot yang anda beli
      (contoh:anda membeli 1000 maka:1000 X10000 = 10.000.000)
  5. SUPER ROYAL FLUSH x 30000 harga jackpot yang anda beli
      (contoh:anda membeli 1000 maka:1000 X30000 = 30.000.000)

Kondisi kartu

  1. full house adalah kondisi kartu dimana kartu anda dan kartu tengah dengan total 7 kartu bisa mendapatkan nilai 5 kartu dengan kombinasi 1 tris(three of kind) dan 1 pair, contoh 3 kartu 10 dan 2 kartu 5
  2. Four of kind adalah kondisi kartu dimana kartu anda dan kartu tengah dengan total 7 kartu bisa mendapatkan nilai 5 kartu dengan kombinasi 4 kartu yang sama jumlah dan 1 kartu apapun juga contoh anda mendapatkan 4 buah kartu angka 3 dan 1 kartu apapun.
  3. Staright flush adalah kondisi kartu dimana kartu anda dan kartu tengah dengan total 7 kartu bisa mendapatkan nilai 5 kartu dengan kombinasi seri / staright dengan kembang yang sama contoh : urutan kartu dari angka 5, 6, 7, 8 , 9 10 dengan kembang yg sama misalnya as hati
  4. Royal flush adalah kondisi kartu dimana kartu anda dan kartu tengah dengan total 7 kartu bisa mendapatkan nilai 5 kartu dengan kombinasi seri / staright dengan kembang yang sama tetapi kartu tersebut haruslah dimulai dari 10. contoh 10, Queen, Jack, King dan aces dengan kembang yang sama
  5. Super Royal flush adalah kondisi kartu dimana Kedua kartu anda digabung dengan 3 kartu pertama meja haruslah royal flush. contoh kartu anda 10,Queen kembang sama dan 3 kartu pertama meja adalah Jack, King dan aces dengan kembang yang sama

Demikian adalah penjelasan dari Multi Jackpot www.uanglancar.com terima kasih dan selamat bermain salam hoki dari kami

Texas Poker Jackpot Winner

TOP SUPER ROYAL FLUSH
No.TanggalNamaPriceWin
126/04 04:24RAFAELDRSuper Royal flush15,000,000
226/04 01:53SLEMBE88Super Royal flush3,000,000
325/04 18:46CEPOT5649Super Royal flush30,000,000
425/04 15:41SANS77Super Royal flush15,000,000
525/04 14:53BHEJHESuper Royal flush6,000,000
TOP ROYAL FLUSH
No.TanggalNamaPriceWin
126/04 11:24TELOLET_18Royal flush2,000,000
226/04 11:18RIMBA24Royal flush500,000
326/04 09:59JANI72Royal flush5,000,000
426/04 07:48NO_ELRoyal flush5,000,000
526/04 07:41TRITIS212Royal flush5,000,000
TOP STRAIGHT FLUSH
No.TanggalNamaPriceWin
126/04 11:37B3D_M3NStraight Flush600,000
226/04 11:36NUNUY8888Straight Flush600,000
326/04 11:35AR13FStraight Flush600,000
426/04 11:33DA_N1Straight Flush600,000
526/04 11:33SRTLQQRIVERStraight Flush120,000
LATEST JACKPOT
No.TanggalNamaPriceWin
126/04 11:39MUNDAKWDFull House1,000
226/04 11:39OGIJPFull House5,000
326/04 11:39HIM212Full House2,000
426/04 11:39S76GC3PZWPFull House2,000
526/04 11:39ONCIUNGUFull House1,000
626/04 11:39FAKTAAAFull House5,000
726/04 11:39557Full House5,000
826/04 11:39SORAHLAHFull House2,000
926/04 11:39LINGAU12Full House5,000
1026/04 11:39SURAYASE75Full House5,000
1126/04 11:39HCALEHZZO1Full House2,000
1226/04 11:38KATAK81Full House2,000
1326/04 11:38EMANQQFour Of A Kind25,000
1426/04 11:38SUNNY088Full House5,000
1526/04 11:38PAKADESJUDFull House5,000
1626/04 11:38BAGAS1882Full House10,000
1726/04 11:38C30BB3E0Full House2,000
1826/04 11:38MARWA84813Full House1,000
1926/04 11:38DUCKDFull House2,000
2026/04 11:38A5F43DFCFull House5,000
2126/04 11:38ADRY9999Full House5,000
2226/04 11:38BOTAXXXX19Full House5,000
2326/04 11:38SUKREMFull House20,000
2426/04 11:38NISUL88Full House5,000
2526/04 11:38SOEL_87Full House2,000
2626/04 11:38T6UJXFK4AYFull House2,000
2726/04 11:38INDIA_99Full House2,000
2826/04 11:38KUTEL220Full House1,000
2926/04 11:38DWBTARUD80Full House1,000
3026/04 11:38KHOLID8UFull House2,000
3126/04 11:38SEFRI66Full House2,000
3226/04 11:38L4NT4N6Full House10,000
3326/04 11:38B1GBROFull House5,000
3426/04 11:38ERIS55Full House1,000
3526/04 11:38NUGIE33Full House5,000
3626/04 11:38IHZA17Full House5,000
3726/04 11:38BARRUKOFull House5,000
3826/04 11:38KARWEX123Full House10,000
3926/04 11:38ALIX777Full House5,000
4026/04 11:38NAFISA01Full House5,000
4126/04 11:38MAMPIEZZFull House10,000
4226/04 11:38YONDI34Full House5,000
4326/04 11:38PUTAK99Full House1,000
4426/04 11:38IRHA_BNGHRFull House5,000
4526/04 11:38SUWODOFour Of A Kind250,000
4626/04 11:38BJJJJSKJDSFull House5,000
4726/04 11:38CELENG4N22Full House5,000
4826/04 11:38COOMBII69Full House1,000
4926/04 11:38SEMANG4T_Full House5,000
5026/04 11:38DA481097Full House1,000

Domino Multi Jackpot System

Ikutilah global jackpot yang tersedia di system kami, dengan system jackpot terbaru dan pertama di indonesia, anda dapat membeli jackpot dengan harga 100 rupiah saja dan menangkan hadiahnya hingga puluhan juta rupiah.

Jackpot bukanlah suatu keharusan untuk dibeli, namun kami memberikan suatu fitur tambahan untuk member tercinta dari www.uanglancar.com.

Terdapat tiga pilihan harga jackpot yang bisa anda beli yaitu :100,500 dan 1000 rupiah.

Hadiah dari Multi jackpot system www.uanglancar.com

  1. Murni Kecil x 50 harga jackpot yang anda beli.
      (contoh:anda membeli 1000 maka:1000 X 50 = 50.000)
  2. Murni Besar x 50 harga jackpot yang anda beli
      (contoh:anda membeli 1000 maka:1000 X 50 = 50.000)
  3. BALAK x 100 harga jackpot yang anda beli
      (contoh:anda membeli 1000 maka:1000 X 100 = 100.000)
  4. ENAM DEWA x 6666 harga jackpot yang anda beli
      (contoh:anda membeli 1000 maka:1000 X 6666 = 6.666.000)

Demikian adalah penjelasan dari Multi Jackpot www.uanglancar.com terima kasih dan selamat bermain salam hoki dari kami

Domino Jackpot Winner

TOP ENAM DEWA
No.TanggalNamaPriceWin
126/04 03:09E303A52Fmurni enam666,600
225/04 23:06THETOPmurni enam3,333,000
325/04 21:52DOLY333murni enam666,600
425/04 21:15KOPI34murni enam6,666,000
525/04 18:40STAREVIL66murni enam3,333,000
TOP BALAK
No.TanggalNamaPriceWin
126/04 11:34WEW12323balak50,000
226/04 11:32IBUSUBERbalak50,000
326/04 11:30ISLAMICbalak100,000
426/04 11:21BOSKU19470balak100,000
526/04 11:20TEMPEK209balak50,000
LATEST JACKPOT
No.TanggalNamaPriceWin
126/04 12:20RASIQPACUmurni kecil5,000
226/04 11:38DANANK99murni kecil25,000
326/04 11:38REJEKIYOKOmurni kecil25,000
426/04 11:37BABA421murni besar50,000
526/04 11:36FLIV6XYK0Lmurni besar25,000
626/04 11:36IBUSUBERmurni besar25,000
726/04 11:35ALFIIEBOYmurni besar5,000
826/04 11:34WEW12323balak50,000
926/04 11:34BUL402murni kecil25,000
1026/04 11:32IBUSUBERbalak50,000
1126/04 11:32BMKOPLAKmurni besar25,000
1226/04 11:31BUSTEDSmurni besar25,000
1326/04 11:31IW4N98murni besar5,000
1426/04 11:31STYLE930murni kecil50,000
1526/04 11:30KASPE12murni kecil5,000
1626/04 11:30ISLAMICbalak100,000
1726/04 11:28HANUNGRUDImurni besar50,000
1826/04 11:28MANGTOYUZmurni besar50,000
1926/04 11:27GEMBUR68murni kecil50,000
2026/04 11:27ANGGIHYUHUmurni besar50,000
2126/04 11:27ARMANI93lucky9925,000
2226/04 11:27FBR250murni besar50,000
2326/04 11:26DANANK99murni kecil25,000
2426/04 11:26BEDEL111murni kecil50,000
2526/04 11:25FBR250murni besar50,000
2626/04 11:25BEDEL111murni besar50,000
2726/04 11:24BISKONmurni besar50,000
2826/04 11:23YOAGAmurni besar50,000
2926/04 11:23DUAAJAmurni besar25,000
3026/04 11:23D1N14lucky9910,000
3126/04 11:22ANGGI130murni kecil50,000
3226/04 11:22JIMBO_CR7murni besar50,000
3326/04 11:22SALIAP9murni besar25,000
3426/04 11:21ISLAMICmurni besar50,000
3526/04 11:21BOSKU19470balak100,000
3626/04 11:21JPR0Y4L10Jmurni kecil25,000
3726/04 11:20TEMPEK209balak50,000
3826/04 11:19SDFHJIEEYImurni besar5,000
3926/04 11:19PROV1987murni kecil50,000
4026/04 11:19CHENHOKY99murni besar50,000
4126/04 11:18JPR0Y4L10Jbalak50,000
4226/04 11:18BEDEL12murni kecil50,000
4326/04 11:17FAHMIADI33murni besar50,000
4426/04 11:14MHDDONIS19murni besar25,000
4526/04 09:58SAKIB695murni kecil5,000
4626/04 09:56DJOHAN81murni besar50,000
4726/04 09:54AJABAH99murni kecil25,000
4826/04 09:54KASPE12murni kecil5,000
4926/04 09:52TOLORGESEKmurni kecil50,000
5026/04 09:51D1N14balak50,000

Ceme Multi Jackpot System

Jackpot dilihat dari gabungan kartu pemain dengan kartu bandar. Bandar harus membeli jackpot sebanyak jumlah player yang sedang duduk. Sebagai contoh bila terdapat 3 pemain duduk bermain, dan bandar memutuskan untuk membeli jackpot Rp 1.000, maka pada periode tersebut bandar akan membeli jackpot sebanyak 3xRp1.000 = Rp3.000.

Jackpot bukanlah suatu keharusan untuk dibeli, namun kami memberikan suatu fitur tambahan untuk member tercinta dari www.uanglancar.com.

Terdapat tiga pilihan harga jackpot yang bisa anda beli yaitu :100,500 dan 1000 rupiah.

Hadiah dari Multi jackpot system www.uanglancar.com

  1. Murni Kecil x 50 harga jackpot yang anda beli.
      (contoh:anda membeli 1000 maka:1000 X 50 = 50.000)
  2. Murni Besar x 50 harga jackpot yang anda beli
      (contoh:anda membeli 1000 maka:1000 X 50 = 50.000)
  3. BALAK x 200 harga jackpot yang anda beli
      (contoh:anda membeli 1000 maka:1000 X 200 = 200.000)
  4. ENAM DEWA x 6666 harga jackpot yang anda beli
      (contoh:anda membeli 1000 maka:1000 X 6666 = 6.666.000)

Demikian adalah penjelasan dari Multi Jackpot www.uanglancar.com terima kasih dan selamat bermain salam hoki dari kami

Ceme Jackpot Winner

TOP ENAM DEWA
No.TanggalNamaPriceWin
126/04 11:32GOBEL36murni enam6,666,000
226/04 11:28LIALA78murni enam666,600
326/04 11:09SIPHO0078murni enam666,600
426/04 11:09DANI11BIUSmurni enam666,600
526/04 09:46DMELL60murni enam6,666,000
TOP BALAK
No.TanggalNamaPriceWin
126/04 11:40SKRT4Rbalak200,000
226/04 11:38DODIROSADIbalak200,000
326/04 11:38BCEXbalak200,000
426/04 11:38POLE15balak20,000
526/04 11:37HARDI07balak20,000
LATEST JACKPOT
No.TanggalNamaPriceWin
126/04 12:20AAAAA168murni besar50,000
226/04 12:20RETNO166murni kecil50,000
326/04 12:20VNY1616murni kecil5,000
426/04 12:19LAPERBOS27murni besar5,000
526/04 11:40SKRT4Rbalak200,000
626/04 11:39CONZLETZmurni besar25,000
726/04 11:39JILEGUD2murni besar25,000
826/04 11:38BRAWITUmurni kecil50,000
926/04 11:38SETKESmurni kecil50,000
1026/04 11:38DODIROSADIbalak200,000
1126/04 11:38NOEX88murni besar50,000
1226/04 11:38IONZC88ZKZmurni besar50,000
1326/04 11:38ERI1902murni kecil50,000
1426/04 11:38DICK2585murni kecil5,000
1526/04 11:38GANEKSmurni kecil50,000
1626/04 11:38BCEXbalak200,000
1726/04 11:38CIRGO2017murni kecil50,000
1826/04 11:38PERMATA90murni kecil5,000
1926/04 11:38BLACKDVDmurni besar25,000
2026/04 11:38OIM15murni besar50,000
2126/04 11:38DJADIT129murni besar50,000
2226/04 11:38BDX12murni besar50,000
2326/04 11:38NUT9999murni besar50,000
2426/04 11:38POLE15balak20,000
2526/04 11:38DONKRAYmurni kecil50,000
2626/04 11:38CIXA50murni kecil50,000
2726/04 11:37YUDHANOmurni kecil50,000
2826/04 11:37SYAH8888murni besar5,000
2926/04 11:37RENDRA469murni kecil5,000
3026/04 11:37COROG237murni besar50,000
3126/04 11:37HARDI07balak20,000
3226/04 11:37DNC0OPQOB3murni kecil50,000
3326/04 11:37MAMBOOYENGmurni kecil5,000
3426/04 11:37AWESOME21murni besar25,000
3526/04 11:37DEDYPLN34balak200,000
3626/04 11:37FULAN23murni kecil50,000
3726/04 11:37BEPBEPmurni kecil50,000
3826/04 11:37LOUDEY766murni kecil50,000
3926/04 11:37CB77BEGYOmurni kecil5,000
4026/04 11:37MREZKYDPmurni kecil50,000
4126/04 11:37MREZKYDPmurni kecil50,000
4226/04 11:37NUSABARAmurni kecil50,000
4326/04 11:37COROG237murni besar50,000
4426/04 11:37MMTSP129murni kecil50,000
4526/04 11:37V2OZDGUAQ9murni kecil50,000
4626/04 11:37SAGO89murni besar5,000
4726/04 11:37SM2005murni besar5,000
4826/04 11:36ORIKEmurni besar50,000
4926/04 11:36RONALDOO7murni kecil50,000
5026/04 11:36INDRAPASTImurni kecil25,000